createdAt,value
2023-01-21T00:01:00.997Z,19.60
2023-01-21T00:03:27.753Z,17.95
2023-01-21T00:05:54.460Z,19.58
2023-01-21T00:08:21.123Z,18.25
2023-01-21T00:10:47.927Z,18.70
2023-01-21T00:13:14.528Z,18.42
2023-01-21T00:15:41.194Z,18.02
2023-01-21T00:18:11.282Z,19.45
2023-01-21T00:20:38.071Z,18.13
2023-01-21T00:23:04.866Z,17.90
2023-01-21T00:25:31.510Z,18.08
2023-01-21T00:27:59.775Z,17.40
2023-01-21T00:30:26.473Z,18.25
2023-01-21T00:32:53.115Z,17.85
2023-01-21T00:35:19.719Z,16.70
2023-01-21T00:37:46.424Z,17.20
2023-01-21T00:40:13.583Z,16.38
2023-01-21T00:42:40.348Z,16.55
2023-01-21T00:45:08.137Z,15.48
2023-01-21T00:47:34.911Z,14.80
2023-01-21T00:50:01.646Z,15.38
2023-01-21T00:52:28.655Z,15.27
2023-01-21T00:55:00.626Z,15.32
2023-01-21T00:57:27.213Z,14.68
2023-01-21T00:59:54.131Z,13.75
2023-01-21T01:02:20.822Z,14.15
2023-01-21T01:04:47.486Z,14.05
2023-01-21T01:07:14.117Z,13.18
2023-01-21T01:09:40.709Z,12.50
2023-01-21T01:12:07.550Z,13.13
2023-01-21T01:14:34.124Z,14.50
2023-01-21T01:17:00.719Z,13.45
2023-01-21T01:19:27.424Z,13.30
2023-01-21T01:21:54.003Z,13.18
2023-01-21T01:24:20.646Z,13.05
2023-01-21T01:26:47.280Z,12.25
2023-01-21T01:29:13.991Z,12.23
2023-01-21T01:31:40.906Z,11.75
2023-01-21T01:34:07.565Z,12.25
2023-01-21T01:36:34.190Z,11.30
2023-01-21T01:39:01.332Z,11.20
2023-01-21T01:41:29.907Z,11.82
2023-01-21T01:44:06.440Z,11.50
2023-01-21T01:46:36.560Z,11.68
2023-01-21T01:49:17.498Z,11.95
2023-01-21T01:52:01.269Z,11.77
2023-01-21T01:54:34.045Z,10.98
2023-01-21T01:57:12.959Z,12.38
2023-01-21T01:59:41.157Z,12.63
2023-01-21T02:02:12.749Z,12.00
2023-01-21T02:04:54.342Z,12.60
2023-01-21T02:07:24.002Z,13.40
2023-01-21T02:09:53.166Z,12.70
2023-01-21T02:12:20.411Z,12.55
2023-01-21T02:14:48.013Z,12.93
2023-01-21T02:17:50.450Z,12.65
2023-01-21T02:21:03.361Z,13.07
2023-01-21T02:24:36.015Z,13.43
2023-01-21T02:27:32.493Z,12.95
2023-01-21T02:30:36.443Z,13.13
2023-01-21T02:33:24.580Z,13.13
2023-01-21T02:36:32.721Z,13.48
2023-01-21T02:39:56.645Z,12.40
2023-01-21T02:42:50.586Z,13.38
2023-01-21T02:45:27.386Z,14.32
2023-01-21T02:48:16.415Z,13.50
2023-01-21T02:50:51.209Z,14.00
2023-01-21T02:53:26.614Z,13.60
2023-01-21T02:55:54.558Z,13.20
2023-01-21T02:58:32.149Z,13.85
2023-01-21T03:01:26.391Z,15.07
2023-01-21T03:04:26.810Z,13.75
2023-01-21T03:07:13.584Z,13.20
2023-01-21T03:09:40.947Z,13.93
2023-01-21T03:13:01.202Z,13.98
2023-01-21T03:16:13.329Z,12.95
2023-01-21T03:18:45.607Z,14.73
2023-01-21T03:21:21.902Z,13.80
2023-01-21T03:23:51.410Z,14.88
2023-01-21T03:26:32.380Z,14.30
2023-01-21T03:29:06.372Z,15.00
2023-01-21T03:31:39.340Z,14.57
2023-01-21T03:34:12.896Z,14.88
2023-01-21T03:36:49.870Z,14.73
2023-01-21T03:39:41.380Z,15.75
2023-01-21T03:42:09.097Z,14.75
2023-01-21T03:44:37.151Z,15.30
2023-01-21T03:47:33.881Z,14.18
2023-01-21T03:50:16.485Z,13.73
2023-01-21T03:52:44.516Z,13.95
2023-01-21T03:55:13.825Z,14.73
2023-01-21T03:57:40.442Z,13.88
2023-01-21T04:00:09.136Z,14.15
2023-01-21T04:02:35.763Z,14.68
2023-01-21T04:05:03.019Z,14.50
2023-01-21T04:07:29.644Z,14.55
2023-01-21T04:09:56.206Z,13.48
2023-01-21T04:12:25.401Z,12.77
2023-01-21T04:14:52.047Z,13.50
2023-01-21T04:17:18.644Z,14.02
2023-01-21T04:19:45.265Z,14.95
2023-01-21T04:22:15.288Z,13.15
2023-01-21T04:24:41.886Z,14.23
2023-01-21T04:27:08.512Z,14.48
2023-01-21T04:29:35.083Z,14.35
2023-01-21T04:32:01.801Z,13.90
2023-01-21T04:34:28.421Z,13.27
2023-01-21T04:36:55.176Z,15.13
2023-01-21T04:39:21.797Z,13.45
2023-01-21T04:41:48.389Z,13.07
2023-01-21T04:44:15.111Z,14.07
2023-01-21T04:46:41.676Z,14.85
2023-01-21T04:49:08.267Z,15.88
2023-01-21T04:51:34.868Z,14.70
2023-01-21T04:54:01.440Z,15.32
2023-01-21T04:56:28.044Z,15.00
2023-01-21T04:58:54.644Z,14.60
2023-01-21T05:01:21.270Z,15.32
2023-01-21T05:03:47.885Z,14.82
2023-01-21T05:06:15.412Z,15.95
2023-01-21T05:08:41.990Z,16.48
2023-01-21T05:11:19.973Z,14.00
2023-01-21T05:13:46.641Z,13.05
2023-01-21T05:16:14.381Z,14.23
2023-01-21T05:18:41.051Z,13.98
2023-01-21T05:21:08.174Z,14.63
2023-01-21T05:23:34.803Z,12.93
2023-01-21T05:26:01.371Z,12.13
2023-01-21T05:28:27.939Z,12.48
2023-01-21T05:30:54.670Z,13.68
2023-01-21T05:33:26.064Z,14.07
2023-01-21T05:35:52.734Z,13.35
2023-01-21T05:38:19.304Z,13.77
2023-01-21T05:40:45.924Z,14.10
2023-01-21T05:43:12.732Z,12.18
2023-01-21T05:45:39.348Z,13.68
2023-01-21T05:48:15.900Z,13.18
2023-01-21T05:50:42.471Z,12.77
2023-01-21T05:53:09.098Z,12.80
2023-01-21T05:55:37.447Z,13.70
2023-01-21T05:58:05.445Z,12.88
2023-01-21T06:00:32.279Z,12.73
2023-01-21T06:03:02.402Z,13.45
2023-01-21T06:05:29.831Z,12.98
2023-01-21T06:07:56.416Z,12.35
2023-01-21T06:10:23.023Z,13.02
2023-01-21T06:12:52.908Z,14.05
2023-01-21T06:15:21.332Z,13.18
2023-01-21T06:17:47.918Z,13.25
2023-01-21T06:20:14.853Z,13.18
2023-01-21T06:22:41.542Z,14.25
2023-01-21T06:25:08.635Z,14.95
2023-01-21T06:27:38.063Z,13.27
2023-01-21T06:30:10.492Z,13.75
2023-01-21T06:32:37.540Z,18.35
2023-01-21T06:35:04.819Z,16.90
2023-01-21T06:37:33.183Z,16.08
2023-01-21T06:40:10.348Z,20.35
2023-01-21T06:42:36.916Z,15.43
2023-01-21T06:45:04.567Z,19.95
2023-01-21T06:47:31.295Z,19.25
2023-01-21T06:49:57.855Z,14.80
2023-01-21T06:52:26.272Z,13.95
2023-01-21T06:54:52.885Z,13.82
2023-01-21T06:57:19.474Z,13.68
2023-01-21T06:59:46.027Z,13.10
2023-01-21T07:02:13.122Z,13.40
2023-01-21T07:04:39.811Z,12.82
2023-01-21T07:07:10.950Z,11.85
2023-01-21T07:09:37.525Z,11.05
2023-01-21T07:12:04.365Z,12.32
2023-01-21T07:14:30.924Z,12.70
2023-01-21T07:16:57.488Z,11.10
2023-01-21T07:19:24.045Z,11.23
2023-01-21T07:21:50.663Z,11.00
2023-01-21T07:24:17.292Z,12.13
2023-01-21T07:26:44.271Z,11.38
2023-01-21T07:29:11.200Z,10.85
2023-01-21T07:31:37.978Z,11.80
2023-01-21T07:34:04.759Z,10.45
2023-01-21T07:36:31.428Z,11.70
2023-01-21T07:38:58.309Z,11.25
2023-01-21T07:41:25.102Z,11.20
2023-01-21T07:44:00.631Z,10.77
2023-01-21T07:46:27.258Z,10.93
2023-01-21T07:48:54.129Z,12.18
2023-01-21T07:51:22.980Z,11.88
2023-01-21T07:53:49.790Z,11.52
2023-01-21T07:56:18.036Z,11.77
2023-01-21T07:58:46.843Z,11.02
2023-01-21T08:01:13.942Z,11.25
2023-01-21T08:03:41.162Z,10.50
2023-01-21T08:06:08.077Z,10.43
2023-01-21T08:08:34.784Z,11.95
2023-01-21T08:11:07.256Z,11.73
2023-01-21T08:13:33.848Z,11.00
2023-01-21T08:16:00.503Z,11.35
2023-01-21T08:18:27.169Z,11.45
2023-01-21T08:20:58.607Z,10.85
2023-01-21T08:23:27.005Z,11.60
2023-01-21T08:25:54.252Z,10.48
2023-01-21T08:28:22.163Z,10.57
2023-01-21T08:30:48.954Z,10.75
2023-01-21T08:33:15.964Z,10.65
2023-01-21T08:35:42.630Z,10.43
2023-01-21T08:38:09.209Z,9.93
2023-01-21T08:40:36.256Z,10.35
2023-01-21T08:43:04.701Z,11.45
2023-01-21T08:45:31.597Z,10.27
2023-01-21T08:47:58.195Z,10.15
2023-01-21T08:50:25.058Z,11.43
2023-01-21T08:52:55.890Z,11.38
2023-01-21T08:55:27.193Z,11.05
2023-01-21T08:57:55.628Z,10.65
2023-01-21T09:00:23.963Z,9.95
2023-01-21T09:02:51.961Z,10.60
2023-01-21T09:05:19.289Z,11.00
2023-01-21T09:07:46.243Z,10.35
2023-01-21T09:10:44.696Z,10.52
2023-01-21T09:13:11.286Z,11.70
2023-01-21T09:15:44.336Z,11.90
2023-01-21T09:18:11.626Z,10.77
2023-01-21T09:20:39.711Z,11.02
2023-01-21T09:23:26.621Z,11.65
2023-01-21T09:26:06.641Z,12.38
2023-01-21T09:28:36.631Z,10.10
2023-01-21T09:31:07.548Z,11.07
2023-01-21T09:33:38.207Z,11.02
2023-01-21T09:36:08.042Z,11.15
2023-01-21T09:38:34.964Z,10.85
2023-01-21T09:41:32.962Z,10.07
2023-01-21T09:44:22.277Z,10.15
2023-01-21T09:47:41.632Z,10.85
2023-01-21T09:50:22.678Z,10.10
2023-01-21T09:52:52.121Z,9.75
2023-01-21T09:55:41.898Z,10.00
2023-01-21T09:58:26.843Z,9.95
2023-01-21T10:01:07.905Z,9.93
2023-01-21T10:03:49.056Z,9.63
2023-01-21T10:06:40.224Z,11.15
2023-01-21T10:09:47.689Z,10.63
2023-01-21T10:12:35.466Z,11.48
2023-01-21T10:15:18.253Z,12.43
2023-01-21T10:17:58.193Z,11.05
2023-01-21T10:21:04.764Z,10.30
2023-01-21T10:23:51.332Z,10.45
2023-01-21T10:26:18.146Z,9.88
2023-01-21T10:28:51.212Z,11.00
2023-01-21T10:31:40.026Z,10.57
2023-01-21T10:34:15.039Z,9.75
2023-01-21T10:37:20.261Z,10.45
2023-01-21T10:40:39.126Z,10.07
2023-01-21T10:43:32.445Z,9.45
2023-01-21T10:46:33.910Z,10.15
2023-01-21T10:49:25.449Z,9.43
2023-01-21T10:52:04.072Z,8.32
2023-01-21T10:54:52.239Z,8.25
2023-01-21T10:57:43.269Z,7.95
2023-01-21T11:00:27.855Z,7.30
2023-01-21T11:03:03.411Z,7.88
2023-01-21T11:05:31.428Z,7.53
2023-01-21T11:07:58.685Z,7.95
2023-01-21T11:10:27.260Z,7.90
2023-01-21T11:12:55.480Z,7.85
2023-01-21T11:15:23.447Z,7.75
2023-01-21T11:17:56.601Z,7.45
2023-01-21T11:20:42.131Z,8.07
2023-01-21T11:23:34.609Z,8.23
2023-01-21T11:26:26.807Z,8.80
2023-01-21T11:29:13.644Z,7.20
2023-01-21T11:31:44.081Z,8.88
2023-01-21T11:34:22.289Z,7.15
2023-01-21T11:37:06.383Z,7.30
2023-01-21T11:39:41.491Z,8.05
2023-01-21T11:42:16.179Z,8.65
2023-01-21T11:44:52.183Z,8.48
2023-01-21T11:47:49.407Z,8.30
2023-01-21T11:50:26.104Z,6.43
2023-01-21T11:53:19.465Z,7.35
2023-01-21T11:55:56.924Z,6.25
2023-01-21T11:58:38.742Z,7.00
2023-01-21T12:01:25.645Z,7.45
2023-01-21T12:04:00.578Z,5.78
2023-01-21T12:06:32.266Z,6.47
2023-01-21T12:09:05.049Z,7.40
2023-01-21T12:11:32.563Z,6.72
2023-01-21T12:14:17.275Z,7.82
2023-01-21T12:17:21.901Z,7.13
2023-01-21T12:20:17.792Z,7.45
2023-01-21T12:23:16.335Z,7.90
2023-01-21T12:25:58.923Z,6.80
2023-01-21T12:28:59.411Z,7.25
2023-01-21T12:31:33.967Z,5.40
2023-01-21T12:34:19.682Z,6.28
2023-01-21T12:36:57.033Z,6.65
2023-01-21T12:39:32.999Z,7.75
2023-01-21T12:42:29.084Z,6.75
2023-01-21T12:45:06.603Z,7.43
2023-01-21T12:47:44.151Z,8.45
2023-01-21T12:50:30.400Z,7.22
2023-01-21T12:53:09.341Z,7.80
2023-01-21T12:56:13.534Z,7.53
2023-01-21T12:58:51.465Z,6.78
2023-01-21T13:01:44.037Z,4.97
2023-01-21T13:04:32.419Z,7.00
2023-01-21T13:07:21.215Z,5.90
2023-01-21T13:10:02.578Z,5.45
2023-01-21T13:12:32.759Z,5.47
2023-01-21T13:15:15.755Z,6.25
2023-01-21T13:17:48.171Z,4.80
2023-01-21T13:20:20.279Z,4.28
2023-01-21T13:23:13.769Z,4.80
2023-01-21T13:25:54.649Z,7.03
2023-01-21T13:28:35.488Z,5.82
2023-01-21T13:31:30.550Z,3.72
2023-01-21T13:34:17.555Z,3.78
2023-01-21T13:37:18.732Z,4.68
2023-01-21T13:40:37.323Z,4.40
2023-01-21T13:44:02.142Z,5.18
2023-01-21T13:46:55.047Z,5.05
2023-01-21T13:50:06.707Z,4.10
2023-01-21T13:53:14.890Z,4.65
2023-01-21T13:56:25.603Z,5.65
2023-01-21T13:59:08.995Z,5.22
2023-01-21T14:01:45.554Z,7.28
2023-01-21T14:04:26.566Z,6.10
2023-01-21T14:07:30.809Z,5.93
2023-01-21T14:10:27.334Z,5.85
2023-01-21T14:13:23.978Z,5.68
2023-01-21T14:16:23.008Z,5.60
2023-01-21T14:19:14.639Z,7.32
2023-01-21T14:22:17.142Z,7.10
2023-01-21T14:25:02.225Z,6.82
2023-01-21T14:27:47.019Z,7.57
2023-01-21T14:30:19.903Z,8.70
2023-01-21T14:32:58.327Z,5.75
2023-01-21T14:35:36.246Z,6.22
2023-01-21T14:38:33.147Z,6.90
2023-01-21T14:41:08.906Z,5.65
2023-01-21T14:43:40.209Z,5.28
2023-01-21T14:46:33.575Z,8.18
2023-01-21T14:49:08.419Z,9.73
2023-01-21T14:51:48.440Z,8.65
2023-01-21T14:54:20.500Z,5.20
2023-01-21T14:57:10.221Z,5.60
2023-01-21T14:59:46.003Z,5.50
2023-01-21T15:02:21.509Z,5.20
2023-01-21T15:05:24.584Z,7.07
2023-01-21T15:08:25.295Z,10.48
2023-01-21T15:11:06.213Z,7.53
2023-01-21T15:13:36.388Z,5.30
2023-01-21T15:16:05.027Z,6.25
2023-01-21T15:18:39.419Z,5.47
2023-01-21T15:48:42.997Z,6.30
2023-01-21T15:51:57.779Z,6.97
2023-01-21T15:54:47.034Z,4.93
2023-01-21T15:57:22.455Z,7.13
2023-01-21T16:00:31.709Z,13.63
2023-01-21T16:03:23.650Z,11.73
2023-01-21T16:06:19.571Z,10.57
2023-01-21T16:09:05.761Z,13.45
2023-01-21T16:12:09.765Z,6.70
2023-01-21T16:15:20.212Z,12.20
2023-01-21T16:18:06.796Z,11.77
2023-01-21T16:20:34.251Z,13.35
2023-01-21T16:23:04.937Z,19.73
2023-01-21T16:25:32.281Z,16.48
2023-01-21T16:27:58.948Z,28.52
2023-01-21T16:30:31.651Z,15.25
2023-01-21T16:33:15.940Z,12.13
2023-01-21T16:35:50.235Z,11.45
2023-01-21T16:38:24.339Z,11.57
2023-01-21T16:41:13.449Z,8.40
2023-01-21T16:43:49.371Z,12.40
2023-01-21T16:46:20.550Z,18.85
2023-01-21T16:48:54.359Z,8.57
2023-01-21T16:51:25.501Z,7.68
2023-01-21T16:53:53.679Z,8.43
2023-01-21T16:56:29.170Z,8.15
2023-01-21T16:58:56.034Z,8.15
2023-01-21T17:01:26.462Z,9.65
2023-01-21T17:03:53.211Z,9.48
2023-01-21T17:06:30.378Z,7.75
2023-01-21T17:09:06.926Z,9.68
2023-01-21T17:11:36.530Z,7.55
2023-01-21T17:14:09.696Z,12.93
2023-01-21T17:16:39.496Z,13.95
2023-01-21T17:19:22.383Z,10.55
2023-01-21T17:21:56.382Z,8.70
2023-01-21T17:24:29.698Z,13.88
2023-01-21T17:27:07.924Z,13.07
2023-01-21T17:29:35.121Z,10.38
2023-01-21T17:32:31.250Z,7.13
2023-01-21T17:35:16.352Z,10.02
2023-01-21T17:37:59.346Z,7.70
2023-01-21T17:40:31.356Z,7.68
2023-01-21T17:43:01.405Z,7.30
2023-01-21T17:45:37.707Z,7.50
2023-01-21T17:48:10.273Z,6.88
2023-01-21T17:50:46.511Z,7.40
2023-01-21T17:53:28.042Z,7.72
2023-01-21T17:56:05.064Z,8.30
2023-01-21T17:58:31.693Z,9.85
2023-01-21T18:01:02.041Z,7.00
2023-01-21T18:03:29.006Z,7.55
2023-01-21T18:05:56.093Z,7.22
2023-01-21T18:08:22.655Z,6.43
2023-01-21T18:10:50.415Z,5.50
2023-01-21T18:13:21.624Z,5.82
2023-01-21T18:15:51.399Z,5.75
2023-01-21T18:18:29.674Z,5.80
2023-01-21T18:20:56.446Z,5.47
2023-01-21T18:23:23.098Z,5.35
2023-01-21T18:25:54.585Z,5.55
2023-01-21T18:28:27.520Z,5.45
2023-01-21T18:30:56.858Z,5.40
2023-01-21T18:33:24.797Z,5.20
2023-01-21T18:35:52.614Z,5.57
2023-01-21T18:38:26.964Z,4.95
2023-01-21T18:40:57.488Z,5.25
2023-01-21T18:43:25.795Z,5.45
2023-01-21T18:45:54.287Z,5.22
2023-01-21T18:48:28.111Z,5.43
2023-01-21T18:50:55.072Z,6.15
2023-01-21T18:53:21.967Z,5.43
2023-01-21T18:55:55.172Z,4.70
2023-01-21T18:58:22.216Z,4.85
2023-01-21T19:00:49.733Z,4.68
2023-01-21T19:03:17.336Z,5.45
2023-01-21T19:05:47.550Z,4.78
2023-01-21T19:08:27.449Z,5.32
2023-01-21T19:10:55.104Z,5.05
2023-01-21T19:13:21.965Z,5.30
2023-01-21T19:15:49.339Z,4.80
2023-01-21T19:18:17.084Z,4.97
2023-01-21T19:20:44.196Z,4.63
2023-01-21T19:23:16.834Z,5.20
2023-01-21T19:25:52.785Z,4.70
2023-01-21T19:28:19.993Z,5.03
2023-01-21T19:30:49.211Z,4.47
2023-01-21T19:33:16.479Z,4.32
2023-01-21T19:35:44.917Z,4.95
2023-01-21T19:38:16.868Z,4.50
2023-01-21T19:40:45.508Z,4.03
2023-01-21T19:43:17.913Z,4.35
2023-01-21T19:45:44.843Z,5.03
2023-01-21T19:48:14.106Z,4.90
2023-01-21T19:50:41.172Z,4.93
2023-01-21T19:53:10.836Z,5.60
2023-01-21T19:55:39.587Z,4.63
2023-01-21T19:58:25.961Z,4.78
2023-01-21T20:00:53.595Z,4.82
2023-01-21T20:03:25.862Z,5.03
2023-01-21T20:05:58.119Z,4.85
2023-01-21T20:08:28.485Z,5.05
2023-01-21T20:10:55.259Z,4.75
2023-01-21T20:13:22.401Z,5.00
2023-01-21T20:15:51.291Z,4.93
2023-01-21T20:18:20.592Z,5.38
2023-01-21T20:20:47.316Z,5.38
2023-01-21T20:23:16.340Z,6.28
2023-01-21T20:25:45.280Z,5.35
2023-01-21T20:28:25.066Z,5.30
2023-01-21T20:30:54.718Z,4.93
2023-01-21T20:33:23.653Z,5.72
2023-01-21T20:35:56.122Z,5.18
2023-01-21T20:38:30.457Z,5.57
2023-01-21T20:40:59.005Z,5.70
2023-01-21T20:43:26.193Z,5.88
2023-01-21T20:45:53.530Z,5.95
2023-01-21T20:48:25.412Z,5.97
2023-01-21T20:50:52.922Z,6.20
2023-01-21T20:53:20.013Z,6.70
2023-01-21T20:55:49.612Z,6.80
2023-01-21T20:58:18.249Z,6.88
2023-01-21T21:00:46.555Z,7.20
2023-01-21T21:03:16.465Z,7.68
2023-01-21T21:05:44.416Z,8.43
2023-01-21T21:08:18.010Z,8.00
2023-01-21T21:10:45.636Z,8.73
2023-01-21T21:13:13.795Z,8.25
2023-01-21T21:15:41.982Z,8.05
2023-01-21T21:18:13.338Z,10.32
2023-01-21T21:20:40.513Z,10.85
2023-01-21T21:23:09.317Z,11.32
2023-01-21T21:25:42.747Z,8.57
2023-01-21T21:28:13.130Z,13.77
2023-01-21T21:30:39.917Z,9.80
2023-01-21T21:33:08.732Z,8.85
2023-01-21T21:35:39.557Z,10.00
2023-01-21T21:38:17.065Z,9.88
2023-01-21T21:40:47.416Z,10.32
2023-01-21T21:43:35.384Z,10.25
2023-01-21T21:46:28.640Z,10.15
2023-01-21T21:48:55.474Z,9.02
2023-01-21T21:51:23.230Z,8.93
2023-01-21T21:53:51.728Z,9.52
2023-01-21T21:56:22.487Z,9.27
2023-01-21T21:58:50.610Z,10.48
2023-01-21T22:01:24.330Z,11.77
2023-01-21T22:03:52.201Z,9.75
2023-01-21T22:06:21.633Z,9.40
2023-01-21T22:08:49.139Z,9.48
2023-01-21T22:11:19.431Z,9.75
2023-01-21T22:13:50.978Z,8.98
2023-01-21T22:16:28.570Z,9.27
2023-01-21T22:19:01.022Z,9.18
2023-01-21T22:21:32.006Z,10.13
2023-01-21T22:23:59.109Z,8.82
2023-01-21T22:26:27.167Z,10.07
2023-01-21T22:28:54.053Z,9.77
2023-01-21T22:31:25.474Z,10.23
2023-01-21T22:33:52.655Z,9.23
2023-01-21T22:36:22.002Z,9.38
2023-01-21T22:38:48.873Z,8.68
2023-01-21T22:41:18.818Z,9.82
2023-01-21T22:43:48.287Z,8.75
2023-01-21T22:46:18.967Z,9.00
2023-01-21T22:48:46.583Z,7.93
2023-01-21T22:51:15.850Z,8.32
2023-01-21T22:53:43.857Z,9.02
2023-01-21T22:56:13.617Z,8.93
2023-01-21T22:58:40.502Z,7.70
2023-01-21T23:01:08.005Z,7.35
2023-01-21T23:03:34.732Z,7.40
2023-01-21T23:06:06.913Z,7.63
2023-01-21T23:08:36.339Z,7.63
2023-01-21T23:11:05.706Z,7.35
2023-01-21T23:13:33.938Z,7.10
2023-01-21T23:16:01.550Z,7.70
2023-01-21T23:18:29.431Z,7.13
2023-01-21T23:20:56.618Z,6.88
2023-01-21T23:23:24.633Z,6.40
2023-01-21T23:25:51.699Z,7.43
2023-01-21T23:28:18.395Z,7.20
2023-01-21T23:30:45.173Z,7.55
2023-01-21T23:33:12.779Z,6.53
2023-01-21T23:35:39.385Z,6.88
2023-01-21T23:38:05.985Z,7.07
2023-01-21T23:40:32.677Z,7.53
2023-01-21T23:42:59.304Z,7.20
2023-01-21T23:45:25.954Z,6.80
2023-01-21T23:47:54.689Z,7.07
2023-01-21T23:50:21.463Z,7.28
2023-01-21T23:52:52.667Z,7.10
2023-01-21T23:55:19.241Z,6.80
2023-01-21T23:57:45.809Z,6.97
